Hopeland, PA (17533)

3:07 AM EST on December 04, 2016 (GMT -0500)
Webster Hill | | Change Station

Elev 482 ft 40.20 °N, 76.31 °W | Updated 28 seconds ago

Overcast
Overcast
41.9 °F
Feels Like 42 °F
N
0.9
Wind Variable Wind from SW
Gusts 2.5 mph

Today
High -- | Low -- °F
--% Chance of Precip.
Yesterday
High -- | Low -- °F
Precip. -- in
Pressure 30.25 in
Visibility 10.0 miles
Clouds Overcast 4600 ft
Windchill 42 °F
Dew Point 30 °F
Humidity 62%
Rainfall 0.00 in
Snow Depth Not available.
7:11 AM 4:39 PM
Waxing Crescent, 20% visible
METAR KLNS 040753Z AUTO 30005KT 10SM OVC046 05/01 A3024 RMK AO2 SLP241 T00500011
Pressure 30.25 in
Visibility 10.0 miles
Clouds Overcast 4600 ft
Windchill 42 °F
Dew Point 30 °F
Humidity 62%
Rainfall 0.00 in
Snow Depth Not available.
7:11 AM 4:39 PM
Waxing Crescent, 20% visible
METAR KLNS 040753Z AUTO 30005KT 10SM OVC046 05/01 A3024 RMK AO2 SLP241 T00500011

10-Day Weather Forecast

Almanac

Astronomy

Dec. 04, 2016 Rise Set
Actual Time
Civil Twilight
Nautical Twilight
Astronomical Twilight
Moon
Length of Visible Light
Length of Day
Tomorrow will be .
, % of the Moon is Illuminated

Today's Extremes

State Highs State Lows

Community

WunderPhotos

Upload Photos

1,955,587 photos uploaded!

WunderBlog® & News

Nearby

Air Quality

  Air Quality AQ Index Pollutant
Not available.

Snow Depth

Station Depth Elevation

Earthquake Activity

City Distance Mag. Time & Date
Minimum magnitude displayed is 2.5.

Coastal Water Temperatures

Place Temperature

Stations

Nearby Weather Stations

Station Location Temp. Windchill Dew Point Humidity Wind Precip. Elev Updated Type
                   

Watches & Warnings

There are currently no watches in effect.